Time;durP1;ratioP1;P1;durP2;ratioP2;P2;SDS_P1;SDS_P2;PMS_P1;PMS_P2;Temp;Humidity;BMP_temperature;BMP_pressure;BME280_temperature;BME280_humidity;BME280_pressure;Samples;Min_cycle;Max_cycle;Signal;HPM_P1;HPM_P2
2022/03/17 00:00:56;;;;;;;0.75;0.75;;;10.30;99.90;;;;;;5008249;28;20129;-64
2022/03/17 00:03:22;;;;;;;0.10;0.10;;;10.20;99.90;;;;;;5007890;28;20101;-64
2022/03/17 00:05:48;;;;;;;0.30;0.30;;;10.20;99.90;;;;;;4990540;28;20118;-64
2022/03/17 00:08:16;;;;;;;0.55;0.55;;;10.20;99.90;;;;;;4991101;28;20038;-65
2022/03/17 00:10:42;;;;;;;0.10;0.10;;;10.30;99.90;;;;;;4990964;28;20026;-64
2022/03/17 00:13:08;;;;;;;0.10;0.10;;;10.20;99.90;;;;;;4998465;28;20033;-65
2022/03/17 00:15:33;;;;;;;0.10;0.10;;;10.20;99.90;;;;;;5010930;28;20030;-64
2022/03/17 00:17:59;;;;;;;1.00;1.00;;;10.10;99.90;;;;;;5010189;28;20030;-64
2022/03/17 00:20:25;;;;;;;0.20;0.20;;;10.20;99.90;;;;;;5007557;28;20018;-64
2022/03/17 00:22:50;;;;;;;0.10;0.10;;;10.20;99.90;;;;;;4990136;28;20026;-65
2022/03/17 00:25:17;;;;;;;0.52;0.52;;;10.20;99.90;;;;;;4995682;28;20029;-64
2022/03/17 00:27:43;;;;;;;0.10;0.10;;;10.10;99.90;;;;;;5009570;28;20042;-64
2022/03/17 00:30:10;;;;;;;0.30;0.30;;;10.10;99.90;;;;;;4993128;28;20499;-63
2022/03/17 00:32:37;;;;;;;0.10;0.10;;;10.10;99.90;;;;;;4990353;28;20511;-65
2022/03/17 00:37:48;;;;;;;0.20;0.20;;;10.10;99.90;;;;;;4993089;28;20038;-64
2022/03/17 00:40:13;;;;;;;0.15;0.15;;;10.10;99.90;;;;;;5003249;28;20030;-65
2022/03/17 00:42:39;;;;;;;0.10;0.10;;;10.00;99.90;;;;;;4990289;28;20045;-65
2022/03/17 00:45:05;;;;;;;0.20;0.20;;;10.10;99.90;;;;;;5003939;28;20101;-65
2022/03/17 00:47:31;;;;;;;0.10;0.10;;;10.10;99.90;;;;;;5009101;28;20081;-65
2022/03/17 00:49:56;;;;;;;0.10;0.10;;;10.00;99.90;;;;;;5009789;28;20025;-65
2022/03/17 00:52:22;;;;;;;0.20;0.20;;;10.00;99.90;;;;;;5009191;28;20041;-65
2022/03/17 00:54:48;;;;;;;1.10;1.10;;;9.90;99.90;;;;;;5007431;28;20109;-64
2022/03/17 00:57:14;;;;;;;0.47;0.47;;;9.90;99.90;;;;;;5009625;28;20032;-66
2022/03/17 00:59:42;;;;;;;0.40;0.40;;;9.80;99.90;;;;;;5010052;28;20025;-64
2022/03/17 01:02:08;;;;;;;0.20;0.20;;;9.80;99.90;;;;;;5007692;28;20495;-64
2022/03/17 01:04:35;;;;;;;0.10;0.10;;;9.40;99.90;;;;;;4990248;28;20045;-64
2022/03/17 01:07:01;;;;;;;0.38;0.38;;;9.80;99.90;;;;;;4990125;28;20041;-65
2022/03/17 01:09:30;;;;;;;0.10;0.10;;;9.80;99.90;;;;;;4992268;28;20507;-64
2022/03/17 01:11:56;;;;;;;0.10;0.10;;;9.80;99.90;;;;;;5006272;28;20507;-64
2022/03/17 01:14:22;;;;;;;0.10;0.10;;;9.70;99.90;;;;;;5009638;28;20100;-64
2022/03/17 01:16:47;;;;;;;0.10;0.10;;;9.70;99.90;;;;;;5012308;28;20117;-64
2022/03/17 01:19:13;;;;;;;1.20;0.43;;;9.70;99.90;;;;;;5012440;28;20391;-64
2022/03/17 01:21:38;;;;;;;0.68;0.68;;;9.70;99.90;;;;;;5024004;28;20037;-64
2022/03/17 01:24:04;;;;;;;0.10;0.10;;;9.60;99.90;;;;;;5008528;28;20053;-63
2022/03/17 01:26:30;;;;;;;0.65;0.65;;;9.60;99.90;;;;;;5022362;22;20065;-66
2022/03/17 01:28:56;;;;;;;2.90;1.65;;;9.60;99.90;;;;;;5028641;28;20092;-66
2022/03/17 01:31:24;;;;;;;1.65;0.93;;;9.60;99.90;;;;;;5029468;28;20104;-70
2022/03/17 01:33:50;;;;;;;0.20;0.20;;;9.80;99.90;;;;;;5029331;28;20029;-67
2022/03/17 01:36:16;;;;;;;0.35;0.35;;;9.60;99.90;;;;;;5029210;28;20078;-67
2022/03/17 01:38:41;;;;;;;0.25;0.25;;;9.60;99.90;;;;;;5023467;28;20613;-67
2022/03/17 01:41:07;;;;;;;0.10;0.10;;;9.50;99.90;;;;;;5023042;28;20479;-67
2022/03/17 01:43:32;;;;;;;0.25;0.25;;;9.50;99.90;;;;;;5023877;28;20507;-66
2022/03/17 01:45:58;;;;;;;0.10;0.10;;;9.50;99.90;;;;;;5019663;28;20034;-66
2022/03/17 01:48:23;;;;;;;0.10;0.10;;;9.50;99.90;;;;;;5020396;28;20511;-67
2022/03/17 01:50:50;;;;;;;0.10;0.10;;;9.50;99.90;;;;;;5026910;28;20040;-68
2022/03/17 01:53:16;;;;;;;0.10;0.10;;;9.50;99.90;;;;;;5036863;28;20072;-67
2022/03/17 01:55:41;;;;;;;0.20;0.20;;;9.40;99.90;;;;;;5026331;28;20029;-66
2022/03/17 01:58:08;;;;;;;1.13;0.93;;;9.40;99.90;;;;;;5021336;28;20060;-67
2022/03/17 02:00:34;;;;;;;0.10;0.10;;;9.40;99.90;;;;;;5024153;28;20024;-66
2022/03/17 02:03:00;;;;;;;0.90;0.90;;;9.50;99.90;;;;;;5026734;28;20411;-67
2022/03/17 02:05:26;;;;;;;0.22;0.22;;;9.50;99.90;;;;;;5030283;28;20079;-67
2022/03/17 02:07:52;;;;;;;2.42;2.22;;;9.50;99.90;;;;;;5028778;28;20026;-66
2022/03/17 02:10:20;;;;;;;0.10;0.10;;;9.50;99.90;;;;;;5023606;28;20079;-67
2022/03/17 02:15:33;;;;;;;0.85;0.85;;;9.50;99.90;;;;;;5023221;28;20402;-66
2022/03/17 02:18:02;;;;;;;0.10;0.10;;;9.50;99.90;;;;;;5020671;28;20038;-67
2022/03/17 02:20:28;;;;;;;0.10;0.10;;;9.50;99.90;;;;;;5020078;28;20028;-67
2022/03/17 02:25:33;;;;;;;0.10;0.10;;;9.50;99.90;;;;;;5019938;28;20029;-68
2022/03/17 02:25:42;;;;;;;0.10;0.10;;;9.30;99.90;;;;;;5029135;28;20402;-66
2022/03/17 02:28:08;;;;;;;0.50;0.50;;;9.30;99.90;;;;;;5020542;28;20065;-67
2022/03/17 02:30:37;;;;;;;4.38;2.60;;;9.20;99.90;;;;;;5021012;28;20115;-67
2022/03/17 02:33:08;;;;;;;0.10;0.10;;;9.10;99.90;;;;;;5030868;28;20021;-66
2022/03/17 02:35:35;;;;;;;0.10;0.10;;;9.10;99.90;;;;;;5018208;28;20044;-67
2022/03/17 02:38:04;;;;;;;0.73;0.73;;;9.20;99.90;;;;;;5030960;28;20112;-67
2022/03/17 02:40:32;;;;;;;1.88;1.77;;;9.20;99.90;;;;;;5021337;28;20037;-67
2022/03/17 02:42:57;;;;;;;0.10;0.10;;;9.20;99.90;;;;;;5028558;28;20510;-67
2022/03/17 02:45:23;;;;;;;0.10;0.10;;;9.20;99.90;;;;;;5023357;28;20034;-66
2022/03/17 02:47:50;;;;;;;1.58;1.48;;;9.20;99.90;;;;;;5031546;28;20038;-67
2022/03/17 02:50:16;;;;;;;0.10;0.10;;;9.30;99.90;;;;;;5031720;28;20506;-67
2022/03/17 02:52:42;;;;;;;0.20;0.20;;;9.30;99.90;;;;;;5031004;28;20033;-66
2022/03/17 02:55:11;;;;;;;0.10;0.10;;;9.40;99.90;;;;;;5027605;28;20029;-67
2022/03/17 02:57:40;;;;;;;0.45;0.45;;;9.30;99.90;;;;;;5031306;28;20087;-67
2022/03/17 03:00:10;;;;;;;0.75;0.75;;;9.40;99.90;;;;;;5031450;28;20049;-66
2022/03/17 03:02:36;;;;;;;0.90;0.90;;;9.40;99.90;;;;;;5028677;28;20454;-65
2022/03/17 03:05:04;;;;;;;0.10;0.10;;;9.40;99.90;;;;;;5012262;28;20025;-67
2022/03/17 03:07:29;;;;;;;0.10;0.10;;;9.40;99.90;;;;;;5011627;28;20049;-66
2022/03/17 03:09:56;;;;;;;0.20;0.20;;;9.40;99.90;;;;;;5023080;28;20488;-69
2022/03/17 03:12:22;;;;;;;0.10;0.10;;;9.40;99.90;;;;;;5030773;28;20034;-70
2022/03/17 03:14:48;;;;;;;0.30;0.30;;;9.50;99.90;;;;;;5031306;28;20126;-69
2022/03/17 03:17:14;;;;;;;0.20;0.20;;;9.50;99.90;;;;;;5031326;28;20048;-67
2022/03/17 03:19:39;;;;;;;2.40;2.30;;;9.40;99.90;;;;;;5026089;28;20491;-66
2022/03/17 03:22:05;;;;;;;0.10;0.10;;;9.40;99.90;;;;;;5019677;28;20408;-66
2022/03/17 03:24:30;;;;;;;0.60;0.60;;;9.30;99.90;;;;;;5023128;28;20025;-66
2022/03/17 03:26:56;;;;;;;0.10;0.10;;;9.30;99.90;;;;;;5024096;28;20026;-66
2022/03/17 03:29:27;;;;;;;0.22;0.22;;;9.40;99.90;;;;;;5025082;28;20045;-67
2022/03/17 03:31:58;;;;;;;0.20;0.20;;;9.40;99.90;;;;;;5023437;28;20060;-65
2022/03/17 03:34:26;;;;;;;0.20;0.20;;;9.40;99.90;;;;;;5025117;28;20033;-66
2022/03/17 03:39:36;;;;;;;0.32;0.32;;;9.40;99.90;;;;;;5027818;28;20064;-69
2022/03/17 03:42:03;;;;;;;0.40;0.40;;;9.50;99.90;;;;;;5018446;28;20048;-67
2022/03/17 03:44:28;;;;;;;0.38;0.38;;;9.50;99.90;;;;;;5026685;28;20083;-66
2022/03/17 03:46:54;;;;;;;3.65;0.77;;;9.40;99.90;;;;;;5030298;28;20021;-69
2022/03/17 03:49:21;;;;;;;0.25;0.25;;;9.50;99.90;;;;;;5038752;28;20021;-67
2022/03/17 03:51:47;;;;;;;0.10;0.10;;;9.50;99.90;;;;;;5027309;28;20026;-68
2022/03/17 03:54:17;;;;;;;4.13;1.95;;;9.50;99.90;;;;;;5020290;28;20041;-66
2022/03/17 03:56:44;;;;;;;0.10;0.10;;;9.50;99.90;;;;;;5030590;28;20029;-68
2022/03/17 03:59:17;;;;;;;0.47;0.47;;;9.50;99.90;;;;;;5030342;28;20041;-67
2022/03/17 04:01:42;;;;;;;0.60;0.60;;;9.50;99.90;;;;;;5027765;28;20028;-66
2022/03/17 04:04:08;;;;;;;0.10;0.10;;;9.50;99.90;;;;;;5041753;28;20096;-69
2022/03/17 04:06:39;;;;;;;0.10;0.10;;;9.50;99.90;;;;;;5048348;28;20036;-68
2022/03/17 04:09:04;;;;;;;0.45;0.45;;;9.50;99.90;;;;;;5030615;28;20029;-67
2022/03/17 04:11:30;;;;;;;0.20;0.20;;;9.60;99.90;;;;;;5019385;28;20152;-67
2022/03/17 04:13:56;;;;;;;0.10;0.10;;;9.50;99.90;;;;;;5026244;28;20036;-66
2022/03/17 04:16:21;;;;;;;0.10;0.10;;;9.50;99.90;;;;;;5019773;28;20057;-67
2022/03/17 04:18:47;;;;;;;0.35;0.35;;;9.60;99.90;;;;;;5019580;28;20030;-67
2022/03/17 04:21:13;;;;;;;0.10;0.10;;;9.60;99.90;;;;;;5017434;28;20025;-66
2022/03/17 04:23:38;;;;;;;2.38;2.22;;;9.60;99.90;;;;;;5023760;28;20100;-67
2022/03/17 04:26:04;;;;;;;0.20;0.20;;;9.60;99.90;;;;;;5021733;28;20034;-67
2022/03/17 04:28:29;;;;;;;0.10;0.10;;;9.60;99.90;;;;;;5024600;28;20068;-67
2022/03/17 04:30:55;;;;;;;0.10;0.10;;;9.50;99.90;;;;;;5018862;28;20109;-68
2022/03/17 04:33:20;;;;;;;0.30;0.30;;;9.60;99.90;;;;;;5024192;28;20491;-68
2022/03/17 04:35:46;;;;;;;0.28;0.28;;;9.60;99.90;;;;;;5025451;28;20097;-68
2022/03/17 04:38:11;;;;;;;0.10;0.10;;;9.60;99.90;;;;;;5016104;28;20025;-65
2022/03/17 04:40:37;;;;;;;0.10;0.10;;;9.60;99.90;;;;;;5022422;28;20026;-66
2022/03/17 04:43:03;;;;;;;1.27;1.17;;;9.60;99.90;;;;;;5025538;28;20026;-67
2022/03/17 04:45:28;;;;;;;0.10;0.10;;;9.60;99.90;;;;;;5023872;28;20029;-67
2022/03/17 04:47:54;;;;;;;0.13;0.13;;;9.50;99.90;;;;;;5025250;28;20060;-68
2022/03/17 04:50:19;;;;;;;0.10;0.10;;;9.50;99.90;;;;;;5020285;28;20033;-67
2022/03/17 04:55:29;;;;;;;0.20;0.20;;;9.50;99.90;;;;;;5022797;28;20044;-66
2022/03/17 04:57:58;;;;;;;0.10;0.10;;;9.50;99.90;;;;;;5021941;28;20033;-67
2022/03/17 05:00:23;;;;;;;2.38;2.28;;;9.50;99.90;;;;;;5024527;28;20116;-66
2022/03/17 05:02:49;;;;;;;0.55;0.55;;;9.50;99.90;;;;;;5024232;28;20514;-67
2022/03/17 05:05:14;;;;;;;0.10;0.10;;;9.50;99.90;;;;;;5026096;28;20055;-67
2022/03/17 05:07:40;;;;;;;0.10;0.10;;;9.50;99.90;;;;;;5022420;28;20038;-66
2022/03/17 05:10:06;;;;;;;0.45;0.45;;;9.50;99.90;;;;;;5028699;28;20502;-67
2022/03/17 05:12:32;;;;;;;0.15;0.15;;;9.50;99.90;;;;;;5031780;28;20029;-67
2022/03/17 05:14:58;;;;;;;0.55;0.55;;;9.40;99.90;;;;;;5023169;28;20072;-66
2022/03/17 05:17:23;;;;;;;0.63;0.63;;;9.50;99.90;;;;;;5026059;28;20528;-67
2022/03/17 05:19:49;;;;;;;0.10;0.10;;;9.60;99.90;;;;;;5033502;28;20025;-67
2022/03/17 05:22:14;;;;;;;1.55;1.55;;;9.50;99.90;;;;;;5032135;28;20617;-68
2022/03/17 05:24:40;;;;;;;0.13;0.13;;;9.50;99.90;;;;;;5019718;28;20031;-67
2022/03/17 05:27:06;;;;;;;0.75;0.75;;;9.40;99.90;;;;;;5021537;28;20041;-67
2022/03/17 05:29:31;;;;;;;0.35;0.35;;;9.50;99.90;;;;;;5020493;28;20025;-67
2022/03/17 05:31:57;;;;;;;0.30;0.30;;;9.50;99.90;;;;;;5022159;28;20029;-68
2022/03/17 05:34:23;;;;;;;0.10;0.10;;;9.50;99.90;;;;;;5022489;28;20457;-66
2022/03/17 05:36:48;;;;;;;0.10;0.10;;;9.50;99.90;;;;;;5025171;28;20043;-67
2022/03/17 05:39:14;;;;;;;0.10;0.10;;;9.50;99.90;;;;;;5029574;28;20026;-68
2022/03/17 05:41:39;;;;;;;0.30;0.30;;;9.50;99.90;;;;;;5022459;28;20054;-68
2022/03/17 05:44:07;;;;;;;0.30;0.30;;;9.50;99.90;;;;;;5029218;28;20026;-67
2022/03/17 05:46:33;;;;;;;0.10;0.10;;;9.40;99.90;;;;;;5021250;28;20027;-68
2022/03/17 05:48:58;;;;;;;1.42;1.40;;;9.40;99.90;;;;;;5024397;28;20026;-67
2022/03/17 05:51:24;;;;;;;0.10;0.10;;;9.40;99.90;;;;;;5025349;28;20040;-66
2022/03/17 05:53:50;;;;;;;0.20;0.20;;;9.40;99.90;;;;;;5034611;28;20442;-66
2022/03/17 05:56:15;;;;;;;0.20;0.20;;;9.40;99.90;;;;;;5044289;28;20033;-67
2022/03/17 05:58:41;;;;;;;0.52;0.52;;;9.50;99.90;;;;;;5044940;28;20037;-67
2022/03/17 06:01:06;;;;;;;0.20;0.20;;;9.50;99.90;;;;;;5031988;28;20020;-67
2022/03/17 06:03:32;;;;;;;0.73;0.73;;;9.50;99.90;;;;;;5017141;28;20029;-66
2022/03/17 06:05:58;;;;;;;4.72;1.38;;;9.50;99.90;;;;;;5012758;28;20026;-67
2022/03/17 06:08:24;;;;;;;0.20;0.20;;;9.50;99.90;;;;;;5031944;28;20467;-67
2022/03/17 06:10:50;;;;;;;0.10;0.10;;;9.50;99.90;;;;;;5025980;28;20131;-67
2022/03/17 06:13:15;;;;;;;1.30;0.65;;;9.50;99.90;;;;;;5023543;28;20033;-67
2022/03/17 06:15:42;;;;;;;0.43;0.43;;;9.50;99.90;;;;;;5029358;28;20040;-67
2022/03/17 06:18:08;;;;;;;0.17;0.17;;;9.60;99.90;;;;;;5027711;28;20540;-67
2022/03/17 06:20:35;;;;;;;0.10;0.10;;;9.60;99.90;;;;;;5023022;28;20108;-68
2022/03/17 06:23:04;;;;;;;1.20;1.17;;;9.70;99.90;;;;;;5027496;28;20061;-68
2022/03/17 06:25:32;;;;;;;0.10;0.10;;;10.20;99.90;;;;;;5025442;28;20036;-68
2022/03/17 06:27:57;;;;;;;0.10;0.10;;;9.70;99.90;;;;;;5020648;28;20030;-68
2022/03/17 06:30:26;;;;;;;0.20;0.20;;;9.60;99.90;;;;;;5022016;28;21034;-67
2022/03/17 06:32:54;;;;;;;0.63;0.63;;;9.50;99.90;;;;;;5023764;28;20029;-65
2022/03/17 06:35:22;;;;;;;0.13;0.13;;;9.50;99.90;;;;;;5026885;28;20029;-73
2022/03/17 06:37:54;;;;;;;0.10;0.10;;;9.30;99.90;;;;;;5032701;28;20074;-73
2022/03/17 06:40:21;;;;;;;0.15;0.15;;;9.20;99.90;;;;;;5035725;28;20495;-71
2022/03/17 06:42:47;;;;;;;0.20;0.20;;;9.10;99.90;;;;;;5021440;28;20115;-69
2022/03/17 06:45:13;;;;;;;0.65;0.65;;;9.20;99.90;;;;;;5021383;28;20060;-69
2022/03/17 06:47:40;;;;;;;0.40;0.40;;;9.40;99.90;;;;;;5020935;28;20030;-67
2022/03/17 06:50:07;;;;;;;0.10;0.10;;;10.20;99.90;;;;;;5021787;28;20502;-68
2022/03/17 06:52:33;;;;;;;0.17;0.17;;;9.70;99.90;;;;;;5022601;28;20029;-67
2022/03/17 06:54:59;;;;;;;0.20;0.20;;;9.70;99.90;;;;;;5021260;28;20037;-70
2022/03/17 06:57:25;;;;;;;0.13;0.13;;;9.70;99.90;;;;;;5016935;28;20029;-68
2022/03/17 06:59:51;;;;;;;0.28;0.28;;;9.80;99.90;;;;;;5022679;28;20052;-69
2022/03/17 07:02:17;;;;;;;0.40;0.40;;;9.70;99.90;;;;;;5044344;28;20030;-69
2022/03/17 07:04:43;;;;;;;3.20;2.47;;;9.70;99.90;;;;;;5018513;28;20499;-67
2022/03/17 07:07:09;;;;;;;0.10;0.10;;;9.70;99.90;;;;;;5024095;28;20030;-67
2022/03/17 07:09:36;;;;;;;0.30;0.30;;;9.80;99.90;;;;;;5028044;28;20388;-68
2022/03/17 07:12:02;;;;;;;0.52;0.52;;;9.80;99.90;;;;;;5037892;28;20484;-66
2022/03/17 07:14:27;;;;;;;0.10;0.10;;;9.80;99.90;;;;;;5026984;28;20037;-71
2022/03/17 07:16:53;;;;;;;0.57;0.57;;;9.80;99.90;;;;;;5020524;28;20471;-67
2022/03/17 07:19:19;;;;;;;0.10;0.10;;;9.90;99.90;;;;;;5026118;28;20045;-67
2022/03/17 07:21:44;;;;;;;0.13;0.13;;;9.90;99.90;;;;;;5020535;28;20495;-67
2022/03/17 07:24:10;;;;;;;0.15;0.15;;;10.00;99.90;;;;;;5025328;28;20075;-67
2022/03/17 07:26:36;;;;;;;0.10;0.10;;;9.90;99.90;;;;;;5028260;28;20029;-67
2022/03/17 07:29:05;;;;;;;0.10;0.10;;;10.00;99.90;;;;;;5022588;28;20048;-67
2022/03/17 07:31:31;;;;;;;1.40;1.38;;;10.00;99.90;;;;;;5029120;28;20025;-67
2022/03/17 07:33:57;;;;;;;0.10;0.10;;;10.00;99.90;;;;;;5020340;28;20034;-68
2022/03/17 07:36:23;;;;;;;0.73;0.73;;;10.00;99.90;;;;;;5022514;28;20490;-71
2022/03/17 07:38:49;;;;;;;0.10;0.10;;;10.10;99.90;;;;;;5021693;28;20029;-67
2022/03/17 07:41:15;;;;;;;0.10;0.10;;;10.20;99.90;;;;;;5025871;28;20029;-67
2022/03/17 07:43:43;;;;;;;0.45;0.45;;;10.20;99.90;;;;;;5021641;28;20025;-68
2022/03/17 07:46:09;;;;;;;0.38;0.38;;;10.20;99.90;;;;;;5025755;28;20475;-71
2022/03/17 07:48:35;;;;;;;0.10;0.10;;;10.40;99.90;;;;;;5021720;28;20041;-69
2022/03/17 07:51:01;;;;;;;0.10;0.10;;;10.60;99.90;;;;;;5025244;28;20548;-69
2022/03/17 07:53:26;;;;;;;0.10;0.10;;;10.60;99.90;;;;;;5023202;28;20044;-69
2022/03/17 07:55:54;;;;;;;0.50;0.50;;;10.60;99.90;;;;;;5027684;28;20038;-67
2022/03/17 07:58:24;;;;;;;0.25;0.25;;;10.70;99.90;;;;;;5029749;28;20025;-67
2022/03/17 08:00:52;;;;;;;0.20;0.20;;;10.70;99.90;;;;;;5040213;28;20049;-67
2022/03/17 08:03:18;;;;;;;0.20;0.20;;;10.70;99.90;;;;;;5036287;28;20104;-68
2022/03/17 08:05:46;;;;;;;1.27;1.17;;;10.70;99.90;;;;;;5028345;28;20030;-67
2022/03/17 08:08:15;;;;;;;0.40;0.40;;;10.70;99.90;;;;;;5029998;28;20048;-69
2022/03/17 08:10:41;;;;;;;1.38;1.27;;;10.60;99.90;;;;;;5016649;28;20113;-69
2022/03/17 08:13:09;;;;;;;0.85;0.85;;;10.60;99.90;;;;;;5021989;28;20037;-69
2022/03/17 08:15:36;;;;;;;1.25;1.25;;;10.50;99.90;;;;;;5021709;28;20021;-67
2022/03/17 08:18:03;;;;;;;1.05;1.05;;;10.60;99.90;;;;;;5021933;28;20486;-68
2022/03/17 08:20:29;;;;;;;0.10;0.10;;;10.50;99.90;;;;;;5018882;28;20057;-68
2022/03/17 08:22:55;;;;;;;0.10;0.10;;;10.50;99.90;;;;;;5019784;28;20040;-69
2022/03/17 08:25:21;;;;;;;0.10;0.10;;;10.50;99.90;;;;;;5025049;28;20029;-67
2022/03/17 08:27:51;;;;;;;0.63;0.63;;;10.60;99.90;;;;;;5031510;28;20025;-68
2022/03/17 08:30:17;;;;;;;0.43;0.43;;;10.60;99.90;;;;;;5024579;28;20049;-66
2022/03/17 08:32:42;;;;;;;0.20;0.20;;;10.70;99.90;;;;;;5035816;28;20529;-67
2022/03/17 08:35:09;;;;;;;0.10;0.10;;;10.60;99.90;;;;;;5029454;28;20017;-69
2022/03/17 08:37:42;;;;;;;0.10;0.10;;;10.70;99.90;;;;;;5027152;28;20026;-68
2022/03/17 08:40:10;;;;;;;0.28;0.28;;;10.70;99.90;;;;;;5030792;28;20030;-68
2022/03/17 08:42:37;;;;;;;0.10;0.10;;;10.80;99.90;;;;;;5033031;28;20032;-68
2022/03/17 08:49:18;;;;;;;0.20;0.20;;;10.90;99.90;;;;;;5028496;28;20075;-68
2022/03/17 08:50:36;;;;;;;0.15;0.15;;;10.80;99.90;;;;;;5029053;28;20440;-67
2022/03/17 08:53:02;;;;;;;0.10;0.10;;;10.90;99.90;;;;;;5030268;28;20033;-67
2022/03/17 08:55:28;;;;;;;0.63;0.63;;;11.00;99.90;;;;;;5029504;28;20037;-69
2022/03/17 08:57:55;;;;;;;0.13;0.13;;;11.00;99.90;;;;;;5032738;28;20034;-67
2022/03/17 09:00:23;;;;;;;0.10;0.10;;;11.10;99.90;;;;;;5020379;28;20021;-71
2022/03/17 09:02:48;;;;;;;0.00;0.00;;;11.20;99.90;;;;;;5028306;28;20025;-69
2022/03/17 09:05:15;;;;;;;0.10;0.10;;;11.10;99.90;;;;;;5028404;28;20156;-68
2022/03/17 09:07:41;;;;;;;0.65;0.65;;;11.20;99.90;;;;;;5026728;28;20030;-67
2022/03/17 09:10:07;;;;;;;0.20;0.20;;;11.20;99.90;;;;;;5033690;28;20081;-68
2022/03/17 09:12:35;;;;;;;0.10;0.10;;;11.20;99.90;;;;;;5029685;28;20026;-68
2022/03/17 09:15:01;;;;;;;0.10;0.10;;;11.20;99.90;;;;;;5030419;28;20532;-67
2022/03/17 09:17:27;;;;;;;0.38;0.38;;;11.20;99.90;;;;;;5028102;28;20120;-67
2022/03/17 09:19:53;;;;;;;0.17;0.17;;;11.20;99.90;;;;;;5024589;28;20164;-67
2022/03/17 09:22:18;;;;;;;0.10;0.10;;;11.20;99.90;;;;;;5025060;28;20104;-67
2022/03/17 09:24:48;;;;;;;0.43;0.43;;;11.30;99.90;;;;;;5022264;28;20029;-69
2022/03/17 09:27:15;;;;;;;0.20;0.20;;;11.30;99.90;;;;;;5022238;28;20044;-68
2022/03/17 09:29:41;;;;;;;0.13;0.13;;;11.30;99.90;;;;;;5025724;28;20030;-68
2022/03/17 09:32:09;;;;;;;0.10;0.10;;;11.40;99.90;;;;;;5024947;28;20024;-67
2022/03/17 09:34:36;;;;;;;0.40;0.40;;;11.50;99.90;;;;;;5025160;28;20076;-69
2022/03/17 09:37:02;;;;;;;0.20;0.20;;;11.60;99.90;;;;;;5018340;28;20486;-69
2022/03/17 09:39:45;;;;;;;0.10;0.10;;;11.60;99.90;;;;;;5021247;28;20129;-69
2022/03/17 09:42:15;;;;;;;0.93;0.93;;;11.70;99.90;;;;;;5021599;28;20021;-67
2022/03/17 09:44:46;;;;;;;0.65;0.65;;;11.70;99.90;;;;;;5023205;28;20018;-66
2022/03/17 09:47:18;;;;;;;0.10;0.10;;;11.70;99.90;;;;;;5027371;28;20025;-66
2022/03/17 09:49:46;;;;;;;0.10;0.10;;;11.70;99.90;;;;;;5024416;28;20037;-67
2022/03/17 09:52:14;;;;;;;0.20;0.20;;;11.80;99.90;;;;;;5021467;28;20490;-67
2022/03/17 09:54:41;;;;;;;0.20;0.20;;;11.80;99.90;;;;;;5026212;28;20486;-69
2022/03/17 09:57:07;;;;;;;0.08;0.08;;;11.80;99.90;;;;;;5027017;28;20017;-67
2022/03/17 09:59:33;;;;;;;0.10;0.10;;;11.80;99.90;;;;;;5031260;28;20402;-67
2022/03/17 10:02:00;;;;;;;0.10;0.10;;;11.80;99.90;;;;;;5027137;28;20017;-67
2022/03/17 10:04:31;;;;;;;0.30;0.30;;;11.70;99.90;;;;;;5024366;28;20083;-68
2022/03/17 10:06:59;;;;;;;0.10;0.10;;;11.80;99.90;;;;;;5030226;28;20036;-67
2022/03/17 10:09:29;;;;;;;0.10;0.10;;;12.00;99.90;;;;;;5021869;28;20478;-69
2022/03/17 10:12:11;;;;;;;0.75;0.75;;;12.10;99.90;;;;;;5024598;28;20029;-71
2022/03/17 10:14:38;;;;;;;0.00;0.00;;;12.10;99.90;;;;;;5028577;28;20395;-68
2022/03/17 10:17:05;;;;;;;0.10;0.10;;;12.20;99.90;;;;;;5024645;28;20072;-67
2022/03/17 10:19:34;;;;;;;0.35;0.35;;;12.20;99.90;;;;;;5025371;28;20125;-66
2022/03/17 10:22:09;;;;;;;0.68;0.68;;;12.20;99.90;;;;;;5028081;28;20483;-68
2022/03/17 10:24:36;;;;;;;0.10;0.10;;;12.40;99.90;;;;;;5024825;28;20025;-68
2022/03/17 10:27:03;;;;;;;0.30;0.30;;;12.40;99.90;;;;;;5025576;28;20022;-68
2022/03/17 10:29:31;;;;;;;0.17;0.17;;;12.40;99.90;;;;;;5025845;28;20034;-68
2022/03/17 10:32:07;;;;;;;0.10;0.10;;;12.30;99.90;;;;;;5025661;28;20017;-69
2022/03/17 10:34:45;;;;;;;0.30;0.30;;;12.10;99.90;;;;;;5024726;28;20029;-70
2022/03/17 10:37:16;;;;;;;0.10;0.10;;;12.20;99.90;;;;;;5026759;28;20039;-70
2022/03/17 10:39:48;;;;;;;0.10;0.10;;;12.40;99.90;;;;;;5025460;28;20424;-68
2022/03/17 10:42:25;;;;;;;0.10;0.10;;;12.40;99.90;;;;;;5027893;28;20017;-68
2022/03/17 10:44:51;;;;;;;0.10;0.10;;;12.50;99.90;;;;;;5021322;28;20534;-68
2022/03/17 10:47:40;;;;;;;0.13;0.13;;;12.60;99.90;;;;;;5023079;28;20134;-73
2022/03/17 10:50:16;;;;;;;0.10;0.10;;;12.70;99.90;;;;;;5022258;28;20487;-69
2022/03/17 10:53:00;;;;;;;0.10;0.10;;;12.90;99.90;;;;;;5024406;28;20053;-67
2022/03/17 10:55:28;;;;;;;0.40;0.40;;;12.90;99.90;;;;;;5023551;28;20036;-69
2022/03/17 10:57:58;;;;;;;0.10;0.10;;;12.80;99.90;;;;;;5022301;28;20021;-70
2022/03/17 11:00:27;;;;;;;0.10;0.10;;;12.70;99.90;;;;;;5026713;28;20072;-68
2022/03/17 11:02:57;;;;;;;0.00;0.00;;;12.90;99.90;;;;;;5023744;28;20017;-69
2022/03/17 11:05:27;;;;;;;1.38;1.27;;;13.00;99.90;;;;;;5023198;28;20036;-72
2022/03/17 11:07:54;;;;;;;0.10;0.10;;;13.00;99.90;;;;;;5026596;28;20021;-70
2022/03/17 11:10:22;;;;;;;0.10;0.10;;;13.00;99.90;;;;;;5021228;28;20502;-70
2022/03/17 11:12:49;;;;;;;0.28;0.28;;;13.00;99.90;;;;;;5025206;28;20045;-69
2022/03/17 11:15:28;;;;;;;0.10;0.10;;;13.10;99.90;;;;;;5023752;28;20447;-69
2022/03/17 11:18:02;;;;;;;0.10;0.10;;;13.30;99.90;;;;;;5026422;28;20442;-69
2022/03/17 11:20:28;;;;;;;0.10;0.10;;;13.20;99.90;;;;;;5026782;28;20387;-69
2022/03/17 11:23:35;;;;;;;0.00;0.00;;;13.00;99.90;;;;;;5022558;28;20121;-71
2022/03/17 11:26:01;;;;;;;0.10;0.10;;;13.00;99.90;;;;;;5019661;28;20041;-69
2022/03/17 11:28:34;;;;;;;0.52;0.52;;;13.00;99.90;;;;;;5027019;28;20122;-68
2022/03/17 11:31:02;;;;;;;0.25;0.25;;;12.80;99.90;;;;;;5024915;28;20071;-66
2022/03/17 11:33:37;;;;;;;0.10;0.10;;;12.70;99.90;;;;;;5025000;28;20116;-68
2022/03/17 11:36:09;;;;;;;0.10;0.10;;;12.70;99.90;;;;;;5021014;28;20033;-69
2022/03/17 11:41:27;;;;;;;0.77;0.77;;;12.50;99.90;;;;;;5024251;28;20083;-68
2022/03/17 11:43:52;;;;;;;0.55;0.55;;;12.50;99.90;;;;;;5021678;28;20091;-66
2022/03/17 11:46:23;;;;;;;0.43;0.43;;;12.40;99.90;;;;;;5024271;28;20583;-67
2022/03/17 11:48:51;;;;;;;0.55;0.55;;;12.40;99.90;;;;;;5021656;28;20032;-67
2022/03/17 11:51:18;;;;;;;0.43;0.43;;;12.30;99.90;;;;;;5024220;28;20030;-67
2022/03/17 11:54:03;;;;;;;0.10;0.10;;;12.40;99.90;;;;;;5024356;28;20021;-67
2022/03/17 11:56:35;;;;;;;0.17;0.17;;;12.40;99.90;;;;;;5025549;28;20033;-66
2022/03/17 11:59:00;;;;;;;1.10;1.10;;;12.40;99.90;;;;;;5033096;28;20033;-67
2022/03/17 12:01:31;;;;;;;0.10;0.10;;;12.30;99.90;;;;;;5024260;28;20032;-68
2022/03/17 12:04:03;;;;;;;0.65;0.65;;;12.30;99.90;;;;;;5041135;28;20022;-69
2022/03/17 12:06:34;;;;;;;3.05;1.70;;;11.80;99.90;;;;;;5025588;28;20025;-69
2022/03/17 12:09:05;;;;;;;1.08;1.08;;;11.70;99.90;;;;;;5024796;28;20489;-71
2022/03/17 12:11:33;;;;;;;1.45;1.35;;;11.60;99.90;;;;;;5023478;28;20033;-69
2022/03/17 12:14:21;;;;;;;0.10;0.10;;;11.80;99.90;;;;;;5022239;28;20026;-71
2022/03/17 12:16:51;;;;;;;0.10;0.10;;;12.00;99.90;;;;;;5025205;28;20025;-68
2022/03/17 12:19:30;;;;;;;1.27;1.27;;;12.00;99.90;;;;;;5022377;28;20026;-69
2022/03/17 12:22:02;;;;;;;0.80;0.80;;;12.10;99.90;;;;;;5023387;28;20104;-69
2022/03/17 12:24:34;;;;;;;0.45;0.45;;;12.20;99.90;;;;;;5021797;28;20458;-69
2022/03/17 12:27:09;;;;;;;0.10;0.10;;;12.40;99.90;;;;;;5024533;28;20475;-69
2022/03/17 12:29:34;;;;;;;0.52;0.52;;;12.30;99.90;;;;;;5022266;28;20795;-69
2022/03/17 12:32:14;;;;;;;0.10;0.10;;;12.30;99.90;;;;;;5023913;28;20037;-71
2022/03/17 12:34:45;;;;;;;1.75;1.65;;;12.40;99.90;;;;;;5025978;28;20144;-69
2022/03/17 12:37:11;;;;;;;0.10;0.10;;;12.50;99.90;;;;;;5023951;28;20581;-69
2022/03/17 12:39:37;;;;;;;0.08;0.08;;;12.60;99.90;;;;;;5022558;28;20086;-68
2022/03/17 12:42:14;;;;;;;0.10;0.10;;;12.60;99.90;;;;;;5022828;28;20021;-70
2022/03/17 12:44:50;;;;;;;0.20;0.20;;;12.60;99.90;;;;;;5022253;28;20036;-68
2022/03/17 12:47:18;;;;;;;0.13;0.13;;;12.60;99.90;;;;;;5021710;28;20033;-69
2022/03/17 12:49:44;;;;;;;0.30;0.30;;;12.70;99.90;;;;;;5021803;28;20040;-67
2022/03/17 12:52:20;;;;;;;0.10;0.10;;;12.70;99.90;;;;;;5021445;28;20025;-68
2022/03/17 12:54:50;;;;;;;0.10;0.10;;;12.70;99.90;;;;;;5024663;28;20113;-67
2022/03/17 12:57:16;;;;;;;0.15;0.15;;;12.70;99.90;;;;;;5024988;28;20056;-68
2022/03/17 12:59:42;;;;;;;0.10;0.10;;;12.70;99.90;;;;;;5021949;28;20490;-68
2022/03/17 13:02:08;;;;;;;0.10;0.10;;;12.70;99.90;;;;;;5024697;28;20028;-70
2022/03/17 13:04:40;;;;;;;0.10;0.10;;;12.70;99.90;;;;;;5025068;28;20075;-67
2022/03/17 13:07:14;;;;;;;0.47;0.47;;;12.60;99.90;;;;;;5024111;28;20033;-70
2022/03/17 13:09:44;;;;;;;0.30;0.30;;;12.60;99.90;;;;;;5023206;28;20503;-67
2022/03/17 13:15:04;;;;;;;0.20;0.20;;;12.40;99.90;;;;;;5023628;28;20055;-66